KROA/ROA METAR and TAF weather

Enter ICAO airport designator
Station Type Date Time Source
KROA METAR 2020/11/25 21:54 UTC NOAA

KROA 252154Z 13012KT 10SM BKN028 OVC044 12/07 A3017 RMK AO2 SLP217 T01170072


Station Type Date Time Source
KROA Decoded METAR 2020/11/25 21:54 UTC NOAA

ROANOKE REGIONAL AIRPORT, VA, United States (KROA) 37-19N 079-58W 362M
Nov 25, 2020 - 04:54 PM EST / 2020.11.25 2154 UTC
Wind: from the SE (130 degrees) at 14 MPH (12 KT):0
Visibility: 10 mile(s):0
Sky conditions: overcast
Temperature: 53.1 F (11.7 C)
Dew Point: 45.0 F (7.2 C)
Relative Humidity: 73%
Pressure (altimeter): 30.17 in. Hg (1021 hPa)
ob: KROA 252154Z 13012KT 10SM BKN028 OVC044 12/07 A3017 RMK AO2 SLP217 T01170072
cycle: 22

Station Type Date Time Source
KROA TAF 2020/11/25 23:34 UTC NOAA

TAF
AMD KROA 252231Z 2523/2618 13012KT P6SM BKN028 OVC045
FM260100 VRB03KT P6SM VCSH OVC040 WS020/19030KT
FM260500 14005KT 6SM -SHRA OVC025
TEMPO 2606/2608 3SM SHRA OVC015
FM261100 25006KT 6SM -SHRA BR OVC008

Example: see airport list